createdAt,value
2023-05-18T00:08:40.619Z,97290.58
2023-05-18T00:18:45.508Z,97286.57
2023-05-18T00:28:48.736Z,97289.73
2023-05-18T00:38:51.861Z,97290.81
2023-05-18T00:48:57.440Z,97292.05
2023-05-18T00:59:03.254Z,97290.30
2023-05-18T01:09:09.379Z,97295.55
2023-05-18T01:19:46.530Z,97298.16
2023-05-18T01:29:50.929Z,97305.35
2023-05-18T01:39:57.075Z,97305.54
2023-05-18T01:50:04.430Z,97307.29
2023-05-18T02:00:10.265Z,97309.56
2023-05-18T02:10:19.489Z,97304.30
2023-05-18T02:20:22.692Z,97301.48
2023-05-18T02:30:29.386Z,97301.86
2023-05-18T02:40:33.032Z,97311.84
2023-05-18T02:50:37.041Z,97317.64
2023-05-18T03:00:41.684Z,97323.59
2023-05-18T03:10:45.886Z,97329.20
2023-05-18T03:20:52.379Z,97340.77
2023-05-18T03:30:55.973Z,97343.75
2023-05-18T03:40:59.751Z,97356.54
2023-05-18T03:51:02.994Z,97366.88
2023-05-18T04:01:07.212Z,97378.63
2023-05-18T04:11:11.908Z,97388.45
2023-05-18T04:21:16.339Z,97397.55
2023-05-18T04:31:22.045Z,97402.63
2023-05-18T04:41:26.406Z,97414.73
2023-05-18T04:51:36.222Z,97450.03
2023-05-18T05:01:43.491Z,97461.55
2023-05-18T05:11:48.613Z,97466.70
2023-05-18T05:21:52.603Z,97479.70
2023-05-18T05:31:57.300Z,97485.02
2023-05-18T05:42:01.095Z,97488.58
2023-05-18T05:52:05.954Z,97489.69
2023-05-18T06:02:10.069Z,97497.08
2023-05-18T06:12:13.761Z,97501.46
2023-05-18T06:22:17.054Z,97508.99
2023-05-18T06:32:37.890Z,97517.39
2023-05-18T06:42:43.561Z,97531.80
2023-05-18T06:53:11.841Z,97536.73
2023-05-18T07:03:15.252Z,97541.13
2023-05-18T07:13:19.717Z,97545.79
2023-05-18T07:23:23.545Z,97554.57
2023-05-18T07:33:26.645Z,97567.83
2023-05-18T07:43:29.891Z,97564.30
2023-05-18T07:53:33.047Z,97568.79
2023-05-18T08:03:36.407Z,97562.77
2023-05-18T08:13:39.620Z,97568.75
2023-05-18T08:23:42.852Z,97571.30
2023-05-18T08:33:46.033Z,97571.20
2023-05-18T08:43:54.188Z,97577.73
2023-05-18T08:53:58.945Z,97577.45
2023-05-18T09:04:02.655Z,97580.48
2023-05-18T09:14:05.966Z,97579.83
2023-05-18T09:24:09.109Z,97579.35
2023-05-18T09:34:13.356Z,97574.95
2023-05-18T09:44:18.017Z,97571.35
2023-05-18T09:54:23.652Z,97575.02
2023-05-18T10:04:41.925Z,97580.73
2023-05-18T10:14:46.437Z,97590.59
2023-05-18T10:24:52.980Z,97590.13
2023-05-18T10:35:00.752Z,97596.88
2023-05-18T10:45:04.407Z,97605.29
2023-05-18T10:55:09.006Z,97608.41
2023-05-18T11:05:12.863Z,97612.30
2023-05-18T11:15:19.931Z,97613.55
2023-05-18T11:25:29.192Z,97614.84
2023-05-18T11:35:34.859Z,97617.40
2023-05-18T11:45:52.445Z,97619.38
2023-05-18T11:55:56.831Z,97623.08
2023-05-18T12:06:01.156Z,97628.22
2023-05-18T12:16:06.758Z,97634.80
2023-05-18T12:26:10.122Z,97637.27
2023-05-18T12:36:14.518Z,97642.71
2023-05-18T12:46:18.185Z,97636.05
2023-05-18T12:56:28.895Z,97639.00
2023-05-18T13:06:42.775Z,97631.63
2023-05-18T13:16:46.106Z,97634.27
2023-05-18T13:26:49.584Z,97640.53
2023-05-18T13:36:52.911Z,97636.61
2023-05-18T13:46:56.178Z,97634.16
2023-05-18T13:56:59.684Z,97631.02
2023-05-18T14:07:06.194Z,97634.86
2023-05-18T14:17:11.454Z,97636.59
2023-05-18T14:27:33.594Z,97640.52
2023-05-18T14:37:39.299Z,97630.38
2023-05-18T14:47:46.679Z,97626.92
2023-05-18T14:57:50.201Z,97626.74
2023-05-18T15:07:53.557Z,97622.01
2023-05-18T15:18:02.582Z,97623.71
2023-05-18T15:28:11.713Z,97625.46
2023-05-18T15:38:17.578Z,97628.91
2023-05-18T15:48:38.000Z,97632.80
2023-05-18T15:58:44.829Z,97637.23
2023-05-18T16:08:48.289Z,97634.98
2023-05-18T16:18:56.678Z,97637.93
2023-05-18T16:29:00.505Z,97637.42
2023-05-18T16:39:03.923Z,97643.54
2023-05-18T16:49:07.096Z,97645.66
2023-05-18T16:59:10.669Z,97649.30
2023-05-18T17:09:13.938Z,97656.98
2023-05-18T17:19:19.718Z,97659.63
2023-05-18T17:29:25.449Z,97660.83
2023-05-18T17:39:28.815Z,97664.96
2023-05-18T17:49:35.126Z,97666.16
2023-05-18T17:59:40.731Z,97664.83
2023-05-18T18:09:44.235Z,97667.48
2023-05-18T18:19:50.330Z,97666.58
2023-05-18T18:29:56.623Z,97670.10
2023-05-18T18:40:10.437Z,97674.66
2023-05-18T18:50:33.749Z,97683.73
2023-05-18T19:00:39.814Z,97684.43
2023-05-18T19:10:52.278Z,97687.05
2023-05-18T19:21:13.089Z,97690.20
2023-05-18T19:31:24.827Z,97688.09
2023-05-18T19:41:36.607Z,97688.80
2023-05-18T19:51:53.495Z,97680.49
2023-05-18T20:02:05.037Z,97688.75
2023-05-18T20:12:32.493Z,97691.03
2023-05-18T20:22:37.070Z,97698.37
2023-05-18T20:32:42.383Z,97699.28
2023-05-18T20:53:26.227Z,97695.08
2023-05-18T21:03:31.629Z,97699.30
2023-05-18T21:13:36.977Z,97699.52
2023-05-18T21:23:40.404Z,97699.55
2023-05-18T21:33:47.926Z,97697.73
2023-05-18T21:43:54.528Z,97699.64
2023-05-18T21:54:02.203Z,97698.95
2023-05-18T22:04:05.317Z,97691.41
2023-05-18T22:14:08.503Z,97693.74
2023-05-18T22:24:11.651Z,97691.31
2023-05-18T22:34:15.292Z,97689.27
2023-05-18T22:44:18.455Z,97693.31
2023-05-18T22:54:21.848Z,97695.52
2023-05-18T23:04:24.937Z,97696.30
2023-05-18T23:14:31.342Z,97694.09
2023-05-18T23:24:34.565Z,97685.66
2023-05-18T23:34:37.863Z,97681.64
2023-05-18T23:44:41.381Z,97676.05
2023-05-18T23:54:47.316Z,97665.73
